sensor_id;sensor_type;location;lat;lon;timestamp;P1;durP1;ratioP1;P2;durP2;ratioP2
16669;SDS011;8448;52.034;5.158;2022-10-04T00:02:17;16.97;;;10.53;;
16669;SDS011;8448;52.034;5.158;2022-10-04T00:04:51;15.27;;;9.80;;
16669;SDS011;8448;52.034;5.158;2022-10-04T00:07:22;18.07;;;11.27;;
16669;SDS011;8448;52.034;5.158;2022-10-04T00:09:53;20.53;;;10.97;;
16669;SDS011;8448;52.034;5.158;2022-10-04T00:12:23;16.03;;;10.50;;
16669;SDS011;8448;52.034;5.158;2022-10-04T00:14:53;14.80;;;10.70;;
16669;SDS011;8448;52.034;5.158;2022-10-04T00:17:24;16.63;;;10.80;;
16669;SDS011;8448;52.034;5.158;2022-10-04T00:19:53;16.87;;;10.70;;
16669;SDS011;8448;52.034;5.158;2022-10-04T00:22:22;17.33;;;11.07;;
16669;SDS011;8448;52.034;5.158;2022-10-04T00:25:01;16.40;;;11.03;;
16669;SDS011;8448;52.034;5.158;2022-10-04T00:31:06;18.37;;;11.90;;
16669;SDS011;8448;52.034;5.158;2022-10-04T00:33:38;17.97;;;11.23;;
16669;SDS011;8448;52.034;5.158;2022-10-04T00:36:29;18.70;;;11.30;;
16669;SDS011;8448;52.034;5.158;2022-10-04T00:45:19;19.80;;;12.77;;
16669;SDS011;8448;52.034;5.158;2022-10-04T00:50:45;17.70;;;11.90;;
16669;SDS011;8448;52.034;5.158;2022-10-04T00:53:18;19.73;;;12.80;;
16669;SDS011;8448;52.034;5.158;2022-10-04T00:56:01;18.80;;;12.23;;
16669;SDS011;8448;52.034;5.158;2022-10-04T00:58:31;17.47;;;12.43;;
16669;SDS011;8448;52.034;5.158;2022-10-04T01:01:00;19.40;;;12.93;;
16669;SDS011;8448;52.034;5.158;2022-10-04T01:03:31;25.63;;;13.60;;
16669;SDS011;8448;52.034;5.158;2022-10-04T01:06:02;20.37;;;12.17;;
16669;SDS011;8448;52.034;5.158;2022-10-04T01:08:31;18.17;;;12.10;;
16669;SDS011;8448;52.034;5.158;2022-10-04T01:11:02;19.63;;;12.33;;
16669;SDS011;8448;52.034;5.158;2022-10-04T01:13:35;18.80;;;12.70;;
16669;SDS011;8448;52.034;5.158;2022-10-04T01:16:08;19.87;;;12.93;;
16669;SDS011;8448;52.034;5.158;2022-10-04T01:18:38;17.70;;;12.30;;
16669;SDS011;8448;52.034;5.158;2022-10-04T01:21:08;19.17;;;11.97;;
16669;SDS011;8448;52.034;5.158;2022-10-04T01:23:48;22.10;;;12.97;;
16669;SDS011;8448;52.034;5.158;2022-10-04T01:26:36;19.27;;;13.03;;
16669;SDS011;8448;52.034;5.158;2022-10-04T01:29:06;21.33;;;13.60;;
16669;SDS011;8448;52.034;5.158;2022-10-04T01:31:36;26.80;;;15.00;;
16669;SDS011;8448;52.034;5.158;2022-10-04T01:34:05;22.00;;;13.80;;
16669;SDS011;8448;52.034;5.158;2022-10-04T01:36:33;20.50;;;13.57;;
16669;SDS011;8448;52.034;5.158;2022-10-04T01:39:02;22.30;;;14.73;;
16669;SDS011;8448;52.034;5.158;2022-10-04T01:41:33;21.93;;;14.13;;
16669;SDS011;8448;52.034;5.158;2022-10-04T01:44:05;20.97;;;13.50;;
16669;SDS011;8448;52.034;5.158;2022-10-04T01:46:36;26.23;;;15.00;;
16669;SDS011;8448;52.034;5.158;2022-10-04T01:49:06;23.63;;;14.37;;
16669;SDS011;8448;52.034;5.158;2022-10-04T01:51:35;22.90;;;13.80;;
16669;SDS011;8448;52.034;5.158;2022-10-04T01:54:06;20.80;;;13.03;;
16669;SDS011;8448;52.034;5.158;2022-10-04T01:56:37;21.67;;;14.50;;
16669;SDS011;8448;52.034;5.158;2022-10-04T01:59:11;18.70;;;13.23;;
16669;SDS011;8448;52.034;5.158;2022-10-04T02:01:44;23.00;;;13.20;;
16669;SDS011;8448;52.034;5.158;2022-10-04T02:04:15;19.80;;;13.83;;
16669;SDS011;8448;52.034;5.158;2022-10-04T02:06:45;20.07;;;13.90;;
16669;SDS011;8448;52.034;5.158;2022-10-04T02:09:16;21.13;;;13.50;;
16669;SDS011;8448;52.034;5.158;2022-10-04T02:11:46;20.70;;;14.20;;
16669;SDS011;8448;52.034;5.158;2022-10-04T02:14:18;20.57;;;12.53;;
16669;SDS011;8448;52.034;5.158;2022-10-04T02:16:47;19.90;;;13.50;;
16669;SDS011;8448;52.034;5.158;2022-10-04T02:19:16;21.57;;;14.30;;
16669;SDS011;8448;52.034;5.158;2022-10-04T02:21:44;22.00;;;13.77;;
16669;SDS011;8448;52.034;5.158;2022-10-04T02:24:13;21.57;;;13.97;;
16669;SDS011;8448;52.034;5.158;2022-10-04T02:26:43;22.53;;;14.50;;
16669;SDS011;8448;52.034;5.158;2022-10-04T02:29:15;19.83;;;12.93;;
16669;SDS011;8448;52.034;5.158;2022-10-04T02:31:43;19.07;;;13.73;;
16669;SDS011;8448;52.034;5.158;2022-10-04T02:34:28;22.53;;;14.53;;
16669;SDS011;8448;52.034;5.158;2022-10-04T02:36:56;21.17;;;14.33;;
16669;SDS011;8448;52.034;5.158;2022-10-04T02:39:30;23.20;;;14.57;;
16669;SDS011;8448;52.034;5.158;2022-10-04T02:41:59;21.87;;;13.93;;
16669;SDS011;8448;52.034;5.158;2022-10-04T02:44:30;23.47;;;14.20;;
16669;SDS011;8448;52.034;5.158;2022-10-04T02:47:03;21.40;;;14.77;;
16669;SDS011;8448;52.034;5.158;2022-10-04T02:49:33;19.53;;;14.03;;
16669;SDS011;8448;52.034;5.158;2022-10-04T02:52:04;21.63;;;14.27;;
16669;SDS011;8448;52.034;5.158;2022-10-04T02:54:36;21.97;;;13.70;;
16669;SDS011;8448;52.034;5.158;2022-10-04T02:57:12;20.07;;;13.80;;
16669;SDS011;8448;52.034;5.158;2022-10-04T02:59:41;22.13;;;14.83;;
16669;SDS011;8448;52.034;5.158;2022-10-04T03:02:19;20.93;;;15.00;;
16669;SDS011;8448;52.034;5.158;2022-10-04T03:04:48;20.13;;;13.83;;
16669;SDS011;8448;52.034;5.158;2022-10-04T03:07:17;19.80;;;14.07;;
16669;SDS011;8448;52.034;5.158;2022-10-04T03:09:45;20.60;;;15.07;;
16669;SDS011;8448;52.034;5.158;2022-10-04T03:12:13;23.90;;;15.80;;
16669;SDS011;8448;52.034;5.158;2022-10-04T03:14:41;21.60;;;15.17;;
16669;SDS011;8448;52.034;5.158;2022-10-04T03:17:09;21.40;;;14.67;;
16669;SDS011;8448;52.034;5.158;2022-10-04T03:19:36;20.80;;;14.67;;
16669;SDS011;8448;52.034;5.158;2022-10-04T03:22:05;25.20;;;16.20;;
16669;SDS011;8448;52.034;5.158;2022-10-04T03:24:36;25.03;;;16.53;;
16669;SDS011;8448;52.034;5.158;2022-10-04T03:27:06;23.03;;;16.07;;
16669;SDS011;8448;52.034;5.158;2022-10-04T03:29:34;24.20;;;15.90;;
16669;SDS011;8448;52.034;5.158;2022-10-04T03:32:06;22.13;;;15.77;;
16669;SDS011;8448;52.034;5.158;2022-10-04T03:34:36;24.40;;;16.87;;
16669;SDS011;8448;52.034;5.158;2022-10-04T03:37:06;23.00;;;16.43;;
16669;SDS011;8448;52.034;5.158;2022-10-04T03:39:35;27.10;;;17.10;;
16669;SDS011;8448;52.034;5.158;2022-10-04T03:42:06;25.03;;;17.13;;
16669;SDS011;8448;52.034;5.158;2022-10-04T03:44:36;25.03;;;16.87;;
16669;SDS011;8448;52.034;5.158;2022-10-04T03:47:06;25.37;;;16.23;;
16669;SDS011;8448;52.034;5.158;2022-10-04T03:49:35;24.97;;;17.60;;
16669;SDS011;8448;52.034;5.158;2022-10-04T03:52:03;23.60;;;17.10;;
16669;SDS011;8448;52.034;5.158;2022-10-04T03:54:31;26.37;;;17.90;;
16669;SDS011;8448;52.034;5.158;2022-10-04T03:56:59;28.87;;;18.03;;
16669;SDS011;8448;52.034;5.158;2022-10-04T03:59:28;28.70;;;18.00;;
16669;SDS011;8448;52.034;5.158;2022-10-04T04:02:00;26.87;;;17.47;;
16669;SDS011;8448;52.034;5.158;2022-10-04T04:04:35;26.67;;;17.50;;
16669;SDS011;8448;52.034;5.158;2022-10-04T04:07:09;26.67;;;17.97;;
16669;SDS011;8448;52.034;5.158;2022-10-04T04:09:40;28.00;;;17.63;;
16669;SDS011;8448;52.034;5.158;2022-10-04T04:12:10;26.20;;;17.70;;
16669;SDS011;8448;52.034;5.158;2022-10-04T04:14:43;24.10;;;17.23;;
16669;SDS011;8448;52.034;5.158;2022-10-04T04:17:28;25.47;;;17.23;;
16669;SDS011;8448;52.034;5.158;2022-10-04T04:20:06;25.20;;;17.90;;
16669;SDS011;8448;52.034;5.158;2022-10-04T04:22:59;22.43;;;16.83;;
16669;SDS011;8448;52.034;5.158;2022-10-04T04:25:28;22.40;;;16.87;;
16669;SDS011;8448;52.034;5.158;2022-10-04T04:28:03;23.23;;;16.00;;
16669;SDS011;8448;52.034;5.158;2022-10-04T04:30:38;24.00;;;17.03;;
16669;SDS011;8448;52.034;5.158;2022-10-04T04:33:11;25.23;;;17.10;;
16669;SDS011;8448;52.034;5.158;2022-10-04T04:35:43;27.50;;;18.67;;
16669;SDS011;8448;52.034;5.158;2022-10-04T04:38:15;28.77;;;18.73;;
16669;SDS011;8448;52.034;5.158;2022-10-04T04:40:45;25.63;;;17.53;;
16669;SDS011;8448;52.034;5.158;2022-10-04T04:43:23;27.87;;;18.57;;
16669;SDS011;8448;52.034;5.158;2022-10-04T04:45:53;26.40;;;17.50;;
16669;SDS011;8448;52.034;5.158;2022-10-04T04:48:22;26.13;;;17.83;;
16669;SDS011;8448;52.034;5.158;2022-10-04T04:50:51;27.27;;;18.20;;
16669;SDS011;8448;52.034;5.158;2022-10-04T04:53:21;23.63;;;16.70;;
16669;SDS011;8448;52.034;5.158;2022-10-04T04:55:50;25.87;;;17.60;;
16669;SDS011;8448;52.034;5.158;2022-10-04T04:58:20;26.60;;;17.40;;
16669;SDS011;8448;52.034;5.158;2022-10-04T05:00:54;28.70;;;18.80;;
16669;SDS011;8448;52.034;5.158;2022-10-04T05:03:22;27.07;;;17.23;;
16669;SDS011;8448;52.034;5.158;2022-10-04T05:05:51;23.23;;;17.30;;
16669;SDS011;8448;52.034;5.158;2022-10-04T05:08:21;27.23;;;17.70;;
16669;SDS011;8448;52.034;5.158;2022-10-04T05:10:54;24.70;;;18.10;;
16669;SDS011;8448;52.034;5.158;2022-10-04T05:13:27;24.43;;;17.30;;
16669;SDS011;8448;52.034;5.158;2022-10-04T05:16:00;26.30;;;18.00;;
16669;SDS011;8448;52.034;5.158;2022-10-04T05:18:29;28.37;;;19.03;;
16669;SDS011;8448;52.034;5.158;2022-10-04T05:21:01;26.93;;;18.17;;
16669;SDS011;8448;52.034;5.158;2022-10-04T05:23:31;29.63;;;18.67;;
16669;SDS011;8448;52.034;5.158;2022-10-04T05:25:59;24.27;;;16.90;;
16669;SDS011;8448;52.034;5.158;2022-10-04T05:28:28;24.40;;;17.30;;
16669;SDS011;8448;52.034;5.158;2022-10-04T05:31:11;23.57;;;17.07;;
16669;SDS011;8448;52.034;5.158;2022-10-04T05:33:57;25.55;;;18.10;;
16669;SDS011;8448;52.034;5.158;2022-10-04T05:36:30;27.27;;;17.47;;
16669;SDS011;8448;52.034;5.158;2022-10-04T05:39:08;26.10;;;18.90;;
16669;SDS011;8448;52.034;5.158;2022-10-04T05:41:41;28.43;;;18.40;;
16669;SDS011;8448;52.034;5.158;2022-10-04T05:44:18;28.33;;;18.13;;
16669;SDS011;8448;52.034;5.158;2022-10-04T05:46:52;29.20;;;18.37;;
16669;SDS011;8448;52.034;5.158;2022-10-04T05:49:20;26.53;;;17.73;;
16669;SDS011;8448;52.034;5.158;2022-10-04T05:51:49;27.43;;;17.23;;
16669;SDS011;8448;52.034;5.158;2022-10-04T05:54:20;29.97;;;17.60;;
16669;SDS011;8448;52.034;5.158;2022-10-04T06:00:00;25.60;;;17.40;;
16669;SDS011;8448;52.034;5.158;2022-10-04T06:02:51;26.43;;;17.43;;
16669;SDS011;8448;52.034;5.158;2022-10-04T06:05:31;22.70;;;16.30;;
16669;SDS011;8448;52.034;5.158;2022-10-04T06:08:12;27.37;;;17.03;;
16669;SDS011;8448;52.034;5.158;2022-10-04T06:10:53;25.90;;;17.13;;
16669;SDS011;8448;52.034;5.158;2022-10-04T06:13:34;25.30;;;16.60;;
16669;SDS011;8448;52.034;5.158;2022-10-04T06:16:18;23.13;;;15.93;;
16669;SDS011;8448;52.034;5.158;2022-10-04T06:19:02;29.27;;;17.67;;
16669;SDS011;8448;52.034;5.158;2022-10-04T06:21:39;25.57;;;16.70;;
16669;SDS011;8448;52.034;5.158;2022-10-04T06:24:21;26.00;;;16.73;;
16669;SDS011;8448;52.034;5.158;2022-10-04T06:26:51;26.83;;;17.53;;
16669;SDS011;8448;52.034;5.158;2022-10-04T06:29:21;24.30;;;16.63;;
16669;SDS011;8448;52.034;5.158;2022-10-04T06:32:00;26.53;;;18.00;;
16669;SDS011;8448;52.034;5.158;2022-10-04T06:34:54;26.40;;;17.47;;
16669;SDS011;8448;52.034;5.158;2022-10-04T06:43:23;29.93;;;17.50;;
16669;SDS011;8448;52.034;5.158;2022-10-04T06:46:03;28.17;;;17.70;;
16669;SDS011;8448;52.034;5.158;2022-10-04T06:51:41;32.87;;;17.93;;
16669;SDS011;8448;52.034;5.158;2022-10-04T06:54:23;32.57;;;17.97;;
16669;SDS011;8448;52.034;5.158;2022-10-04T06:57:09;27.87;;;18.13;;
16669;SDS011;8448;52.034;5.158;2022-10-04T06:59:52;28.07;;;17.57;;
16669;SDS011;8448;52.034;5.158;2022-10-04T07:02:32;28.30;;;18.27;;
16669;SDS011;8448;52.034;5.158;2022-10-04T07:05:07;28.17;;;16.93;;
16669;SDS011;8448;52.034;5.158;2022-10-04T07:07:42;29.17;;;18.00;;
16669;SDS011;8448;52.034;5.158;2022-10-04T07:10:25;26.37;;;17.90;;
16669;SDS011;8448;52.034;5.158;2022-10-04T07:13:03;26.50;;;17.77;;
16669;SDS011;8448;52.034;5.158;2022-10-04T07:15:41;26.60;;;17.53;;
16669;SDS011;8448;52.034;5.158;2022-10-04T07:18:12;25.03;;;17.27;;
16669;SDS011;8448;52.034;5.158;2022-10-04T07:20:42;25.37;;;17.40;;
16669;SDS011;8448;52.034;5.158;2022-10-04T07:23:13;25.53;;;17.97;;
16669;SDS011;8448;52.034;5.158;2022-10-04T07:25:47;24.63;;;16.97;;
16669;SDS011;8448;52.034;5.158;2022-10-04T07:28:16;26.03;;;17.33;;
16669;SDS011;8448;52.034;5.158;2022-10-04T07:31:04;23.30;;;15.97;;
16669;SDS011;8448;52.034;5.158;2022-10-04T07:33:40;27.97;;;17.63;;
16669;SDS011;8448;52.034;5.158;2022-10-04T07:36:09;24.10;;;15.37;;
16669;SDS011;8448;52.034;5.158;2022-10-04T07:38:41;28.50;;;16.77;;
16669;SDS011;8448;52.034;5.158;2022-10-04T07:41:16;21.80;;;15.83;;
16669;SDS011;8448;52.034;5.158;2022-10-04T07:43:48;24.47;;;14.93;;
16669;SDS011;8448;52.034;5.158;2022-10-04T07:49:10;20.67;;;14.20;;
16669;SDS011;8448;52.034;5.158;2022-10-04T07:51:39;20.33;;;12.43;;
16669;SDS011;8448;52.034;5.158;2022-10-04T07:54:28;21.83;;;13.57;;
16669;SDS011;8448;52.034;5.158;2022-10-04T07:57:02;18.90;;;13.07;;
16669;SDS011;8448;52.034;5.158;2022-10-04T07:59:38;20.23;;;13.20;;
16669;SDS011;8448;52.034;5.158;2022-10-04T08:02:18;20.47;;;13.83;;
16669;SDS011;8448;52.034;5.158;2022-10-04T08:04:52;21.20;;;12.37;;
16669;SDS011;8448;52.034;5.158;2022-10-04T08:07:30;17.80;;;12.73;;
16669;SDS011;8448;52.034;5.158;2022-10-04T08:10:13;20.43;;;13.13;;
16669;SDS011;8448;52.034;5.158;2022-10-04T08:12:46;20.97;;;12.90;;
16669;SDS011;8448;52.034;5.158;2022-10-04T08:15:25;22.20;;;13.90;;
16669;SDS011;8448;52.034;5.158;2022-10-04T08:18:00;20.07;;;12.00;;
16669;SDS011;8448;52.034;5.158;2022-10-04T08:20:35;18.73;;;11.97;;
16669;SDS011;8448;52.034;5.158;2022-10-04T08:23:19;17.37;;;11.90;;
16669;SDS011;8448;52.034;5.158;2022-10-04T08:26:06;20.33;;;11.70;;
16669;SDS011;8448;52.034;5.158;2022-10-04T08:28:47;17.47;;;10.83;;
16669;SDS011;8448;52.034;5.158;2022-10-04T08:31:38;18.20;;;10.90;;
16669;SDS011;8448;52.034;5.158;2022-10-04T08:34:15;15.70;;;10.67;;
16669;SDS011;8448;52.034;5.158;2022-10-04T08:36:54;18.63;;;10.70;;
16669;SDS011;8448;52.034;5.158;2022-10-04T08:39:44;17.03;;;10.07;;
16669;SDS011;8448;52.034;5.158;2022-10-04T08:42:39;19.90;;;10.17;;
16669;SDS011;8448;52.034;5.158;2022-10-04T08:45:36;15.47;;;10.00;;
16669;SDS011;8448;52.034;5.158;2022-10-04T08:52:16;17.77;;;10.37;;
16669;SDS011;8448;52.034;5.158;2022-10-04T08:58:15;15.10;;;9.53;;
16669;SDS011;8448;52.034;5.158;2022-10-04T09:07:08;14.82;;;9.30;;
16669;SDS011;8448;52.034;5.158;2022-10-04T09:10:01;11.35;;;9.05;;
16669;SDS011;8448;52.034;5.158;2022-10-04T09:12:53;15.07;;;9.30;;
16669;SDS011;8448;52.034;5.158;2022-10-04T09:15:35;14.97;;;9.50;;
16669;SDS011;8448;52.034;5.158;2022-10-04T09:18:20;14.32;;;9.02;;
16669;SDS011;8448;52.034;5.158;2022-10-04T09:20:54;14.90;;;9.55;;
16669;SDS011;8448;52.034;5.158;2022-10-04T09:26:38;12.97;;;9.50;;
16669;SDS011;8448;52.034;5.158;2022-10-04T09:32:20;13.60;;;9.37;;
16669;SDS011;8448;52.034;5.158;2022-10-04T09:35:07;12.50;;;9.17;;
16669;SDS011;8448;52.034;5.158;2022-10-04T09:37:47;15.02;;;9.43;;
16669;SDS011;8448;52.034;5.158;2022-10-04T09:46:43;12.15;;;8.77;;
16669;SDS011;8448;52.034;5.158;2022-10-04T09:52:22;13.55;;;8.43;;
16669;SDS011;8448;52.034;5.158;2022-10-04T09:54:59;12.45;;;8.55;;
16669;SDS011;8448;52.034;5.158;2022-10-04T09:57:37;13.20;;;8.50;;
16669;SDS011;8448;52.034;5.158;2022-10-04T10:00:12;14.05;;;8.10;;
16669;SDS011;8448;52.034;5.158;2022-10-04T10:06:16;12.23;;;7.95;;
16669;SDS011;8448;52.034;5.158;2022-10-04T10:08:58;12.77;;;8.45;;
16669;SDS011;8448;52.034;5.158;2022-10-04T10:11:34;14.02;;;8.52;;
16669;SDS011;8448;52.034;5.158;2022-10-04T10:14:46;10.63;;;7.70;;
16669;SDS011;8448;52.034;5.158;2022-10-04T10:17:26;10.75;;;7.88;;
16669;SDS011;8448;52.034;5.158;2022-10-04T10:23:26;11.90;;;7.93;;
16669;SDS011;8448;52.034;5.158;2022-10-04T10:26:09;8.90;;;6.90;;
16669;SDS011;8448;52.034;5.158;2022-10-04T10:29:04;13.05;;;7.93;;
16669;SDS011;8448;52.034;5.158;2022-10-04T10:32:09;11.82;;;7.60;;
16669;SDS011;8448;52.034;5.158;2022-10-04T10:37:45;10.55;;;7.63;;
16669;SDS011;8448;52.034;5.158;2022-10-04T10:40:46;10.25;;;7.00;;
16669;SDS011;8448;52.034;5.158;2022-10-04T10:43:41;11.55;;;6.82;;
16669;SDS011;8448;52.034;5.158;2022-10-04T10:46:19;9.63;;;6.88;;
16669;SDS011;8448;52.034;5.158;2022-10-04T10:48:56;13.50;;;7.07;;
16669;SDS011;8448;52.034;5.158;2022-10-04T10:51:56;8.38;;;5.80;;
16669;SDS011;8448;52.034;5.158;2022-10-04T10:57:31;10.40;;;5.68;;
16669;SDS011;8448;52.034;5.158;2022-10-04T11:00:19;9.90;;;5.75;;
16669;SDS011;8448;52.034;5.158;2022-10-04T11:03:09;9.20;;;5.45;;
16669;SDS011;8448;52.034;5.158;2022-10-04T11:06:10;12.45;;;6.60;;
16669;SDS011;8448;52.034;5.158;2022-10-04T11:08:49;12.10;;;6.18;;
16669;SDS011;8448;52.034;5.158;2022-10-04T11:14:51;12.20;;;5.65;;
16669;SDS011;8448;52.034;5.158;2022-10-04T11:17:47;10.18;;;6.60;;
16669;SDS011;8448;52.034;5.158;2022-10-04T11:23:40;10.50;;;6.07;;
16669;SDS011;8448;52.034;5.158;2022-10-04T11:26:43;9.95;;;6.55;;
16669;SDS011;8448;52.034;5.158;2022-10-04T11:29:25;7.95;;;5.38;;
16669;SDS011;8448;52.034;5.158;2022-10-04T11:38:45;9.60;;;5.97;;
16669;SDS011;8448;52.034;5.158;2022-10-04T11:41:43;7.95;;;6.35;;
16669;SDS011;8448;52.034;5.158;2022-10-04T11:44:23;10.60;;;6.95;;
16669;SDS011;8448;52.034;5.158;2022-10-04T11:47:06;9.40;;;5.90;;
16669;SDS011;8448;52.034;5.158;2022-10-04T11:49:47;10.77;;;6.18;;
16669;SDS011;8448;52.034;5.158;2022-10-04T11:58:45;11.60;;;6.03;;
16669;SDS011;8448;52.034;5.158;2022-10-04T12:04:35;8.32;;;5.80;;
16669;SDS011;8448;52.034;5.158;2022-10-04T12:07:26;9.88;;;5.75;;
16669;SDS011;8448;52.034;5.158;2022-10-04T12:10:11;9.15;;;5.85;;
16669;SDS011;8448;52.034;5.158;2022-10-04T12:19:30;8.45;;;5.20;;
16669;SDS011;8448;52.034;5.158;2022-10-04T12:22:18;10.00;;;6.18;;
16669;SDS011;8448;52.034;5.158;2022-10-04T12:25:07;11.38;;;5.95;;
16669;SDS011;8448;52.034;5.158;2022-10-04T12:28:02;8.70;;;5.90;;
16669;SDS011;8448;52.034;5.158;2022-10-04T12:30:42;8.80;;;6.00;;
16669;SDS011;8448;52.034;5.158;2022-10-04T12:33:41;11.57;;;6.38;;
16669;SDS011;8448;52.034;5.158;2022-10-04T12:36:17;7.82;;;5.53;;
16669;SDS011;8448;52.034;5.158;2022-10-04T12:39:02;10.35;;;5.70;;
16669;SDS011;8448;52.034;5.158;2022-10-04T12:41:43;9.15;;;6.18;;
16669;SDS011;8448;52.034;5.158;2022-10-04T12:44:21;8.60;;;5.90;;
16669;SDS011;8448;52.034;5.158;2022-10-04T12:46:56;9.85;;;5.80;;
16669;SDS011;8448;52.034;5.158;2022-10-04T12:49:48;11.40;;;6.28;;
16669;SDS011;8448;52.034;5.158;2022-10-04T12:52:21;11.55;;;6.18;;
16669;SDS011;8448;52.034;5.158;2022-10-04T12:54:52;9.80;;;6.28;;
16669;SDS011;8448;52.034;5.158;2022-10-04T12:57:32;9.60;;;6.43;;
16669;SDS011;8448;52.034;5.158;2022-10-04T13:00:15;8.18;;;5.03;;
16669;SDS011;8448;52.034;5.158;2022-10-04T13:02:49;10.07;;;5.65;;
16669;SDS011;8448;52.034;5.158;2022-10-04T13:05:36;9.75;;;5.60;;
16669;SDS011;8448;52.034;5.158;2022-10-04T13:08:19;7.65;;;5.40;;
16669;SDS011;8448;52.034;5.158;2022-10-04T13:11:03;10.52;;;6.20;;
16669;SDS011;8448;52.034;5.158;2022-10-04T13:13:46;12.38;;;5.53;;
16669;SDS011;8448;52.034;5.158;2022-10-04T13:16:32;8.65;;;5.25;;
16669;SDS011;8448;52.034;5.158;2022-10-04T13:19:09;9.40;;;6.03;;
16669;SDS011;8448;52.034;5.158;2022-10-04T13:21:51;8.95;;;5.00;;
16669;SDS011;8448;52.034;5.158;2022-10-04T13:24:40;6.85;;;4.85;;
16669;SDS011;8448;52.034;5.158;2022-10-04T13:27:25;7.70;;;5.35;;
16669;SDS011;8448;52.034;5.158;2022-10-04T13:29:57;10.32;;;5.97;;
16669;SDS011;8448;52.034;5.158;2022-10-04T13:32:33;9.25;;;5.22;;
16669;SDS011;8448;52.034;5.158;2022-10-04T13:35:09;8.40;;;5.68;;
16669;SDS011;8448;52.034;5.158;2022-10-04T13:37:42;7.38;;;5.20;;
16669;SDS011;8448;52.034;5.158;2022-10-04T13:40:22;8.57;;;5.88;;
16669;SDS011;8448;52.034;5.158;2022-10-04T13:46:05;8.90;;;5.70;;
16669;SDS011;8448;52.034;5.158;2022-10-04T13:48:42;9.43;;;6.00;;
16669;SDS011;8448;52.034;5.158;2022-10-04T13:51:22;13.60;;;6.40;;
16669;SDS011;8448;52.034;5.158;2022-10-04T13:54:05;10.10;;;6.57;;
16669;SDS011;8448;52.034;5.158;2022-10-04T13:57:02;10.82;;;6.28;;
16669;SDS011;8448;52.034;5.158;2022-10-04T13:59:40;8.45;;;5.82;;
16669;SDS011;8448;52.034;5.158;2022-10-04T14:02:14;9.02;;;5.68;;
16669;SDS011;8448;52.034;5.158;2022-10-04T14:08:04;11.88;;;6.75;;
16669;SDS011;8448;52.034;5.158;2022-10-04T14:11:03;8.90;;;6.07;;
16669;SDS011;8448;52.034;5.158;2022-10-04T14:13:58;9.50;;;6.10;;
16669;SDS011;8448;52.034;5.158;2022-10-04T14:16:54;10.85;;;6.00;;
16669;SDS011;8448;52.034;5.158;2022-10-04T14:19:53;8.82;;;5.35;;
16669;SDS011;8448;52.034;5.158;2022-10-04T14:23:06;10.20;;;5.72;;
16669;SDS011;8448;52.034;5.158;2022-10-04T14:29:20;9.50;;;5.05;;
16669;SDS011;8448;52.034;5.158;2022-10-04T14:32:07;9.50;;;5.63;;
16669;SDS011;8448;52.034;5.158;2022-10-04T14:35:03;8.80;;;5.20;;
16669;SDS011;8448;52.034;5.158;2022-10-04T14:37:48;11.15;;;5.80;;
16669;SDS011;8448;52.034;5.158;2022-10-04T14:40:38;5.93;;;4.93;;
16669;SDS011;8448;52.034;5.158;2022-10-04T14:43:22;7.78;;;5.20;;
16669;SDS011;8448;52.034;5.158;2022-10-04T14:46:19;9.57;;;5.45;;
16669;SDS011;8448;52.034;5.158;2022-10-04T14:48:59;7.25;;;5.45;;
16669;SDS011;8448;52.034;5.158;2022-10-04T14:54:29;9.02;;;5.25;;
16669;SDS011;8448;52.034;5.158;2022-10-04T14:57:08;9.35;;;5.97;;
16669;SDS011;8448;52.034;5.158;2022-10-04T15:02:40;8.63;;;5.65;;
16669;SDS011;8448;52.034;5.158;2022-10-04T15:05:25;10.30;;;5.90;;
16669;SDS011;8448;52.034;5.158;2022-10-04T15:07:58;11.57;;;5.75;;
16669;SDS011;8448;52.034;5.158;2022-10-04T15:10:47;10.55;;;5.60;;
16669;SDS011;8448;52.034;5.158;2022-10-04T15:13:19;10.73;;;5.85;;
16669;SDS011;8448;52.034;5.158;2022-10-04T15:15:55;10.50;;;5.43;;
16669;SDS011;8448;52.034;5.158;2022-10-04T15:18:28;10.27;;;5.47;;
16669;SDS011;8448;52.034;5.158;2022-10-04T15:21:00;9.85;;;5.28;;
16669;SDS011;8448;52.034;5.158;2022-10-04T15:23:34;10.40;;;5.47;;
16669;SDS011;8448;52.034;5.158;2022-10-04T15:26:05;7.68;;;5.68;;
16669;SDS011;8448;52.034;5.158;2022-10-04T15:29:00;12.05;;;5.80;;
16669;SDS011;8448;52.034;5.158;2022-10-04T15:31:32;9.55;;;5.70;;
16669;SDS011;8448;52.034;5.158;2022-10-04T15:34:03;10.52;;;5.68;;
16669;SDS011;8448;52.034;5.158;2022-10-04T15:36:46;11.10;;;5.22;;
16669;SDS011;8448;52.034;5.158;2022-10-04T15:39:47;9.80;;;5.43;;
16669;SDS011;8448;52.034;5.158;2022-10-04T15:42:26;9.32;;;5.45;;
16669;SDS011;8448;52.034;5.158;2022-10-04T15:48:05;9.93;;;5.85;;
16669;SDS011;8448;52.034;5.158;2022-10-04T15:50:53;7.43;;;5.85;;
16669;SDS011;8448;52.034;5.158;2022-10-04T15:53:27;8.35;;;5.65;;
16669;SDS011;8448;52.034;5.158;2022-10-04T15:56:12;7.70;;;5.63;;
16669;SDS011;8448;52.034;5.158;2022-10-04T15:59:02;7.78;;;5.13;;
16669;SDS011;8448;52.034;5.158;2022-10-04T16:01:47;9.95;;;6.00;;
16669;SDS011;8448;52.034;5.158;2022-10-04T16:12:55;9.70;;;5.82;;
16669;SDS011;8448;52.034;5.158;2022-10-04T16:15:38;8.75;;;5.63;;
16669;SDS011;8448;52.034;5.158;2022-10-04T16:18:24;9.43;;;5.47;;
16669;SDS011;8448;52.034;5.158;2022-10-04T16:21:05;7.53;;;5.43;;
16669;SDS011;8448;52.034;5.158;2022-10-04T16:23:41;9.88;;;5.88;;
16669;SDS011;8448;52.034;5.158;2022-10-04T16:26:09;12.23;;;6.15;;
16669;SDS011;8448;52.034;5.158;2022-10-04T16:31:27;8.23;;;5.20;;
16669;SDS011;8448;52.034;5.158;2022-10-04T16:34:14;7.18;;;4.57;;
16669;SDS011;8448;52.034;5.158;2022-10-04T16:36:56;7.43;;;5.30;;
16669;SDS011;8448;52.034;5.158;2022-10-04T16:39:33;11.00;;;5.93;;
16669;SDS011;8448;52.034;5.158;2022-10-04T16:42:21;9.48;;;6.20;;
16669;SDS011;8448;52.034;5.158;2022-10-04T16:44:51;11.45;;;6.45;;
16669;SDS011;8448;52.034;5.158;2022-10-04T16:47:24;7.50;;;5.45;;
16669;SDS011;8448;52.034;5.158;2022-10-04T16:49:55;9.20;;;6.28;;
16669;SDS011;8448;52.034;5.158;2022-10-04T16:52:36;9.65;;;6.15;;
16669;SDS011;8448;52.034;5.158;2022-10-04T16:55:31;8.00;;;5.20;;
16669;SDS011;8448;52.034;5.158;2022-10-04T17:01:38;8.23;;;5.80;;
16669;SDS011;8448;52.034;5.158;2022-10-04T17:07:33;8.90;;;6.55;;
16669;SDS011;8448;52.034;5.158;2022-10-04T17:10:15;16.23;;;6.25;;
16669;SDS011;8448;52.034;5.158;2022-10-04T17:12:47;9.88;;;6.40;;
16669;SDS011;8448;52.034;5.158;2022-10-04T17:15:22;8.43;;;6.65;;
16669;SDS011;8448;52.034;5.158;2022-10-04T17:18:11;10.85;;;7.18;;
16669;SDS011;8448;52.034;5.158;2022-10-04T17:20:53;8.73;;;6.45;;
16669;SDS011;8448;52.034;5.158;2022-10-04T17:23:33;11.95;;;6.80;;
16669;SDS011;8448;52.034;5.158;2022-10-04T17:26:07;8.88;;;6.28;;
16669;SDS011;8448;52.034;5.158;2022-10-04T17:28:43;10.15;;;6.97;;
16669;SDS011;8448;52.034;5.158;2022-10-04T17:31:16;11.20;;;6.95;;
16669;SDS011;8448;52.034;5.158;2022-10-04T17:33:53;12.02;;;7.45;;
16669;SDS011;8448;52.034;5.158;2022-10-04T17:36:31;10.90;;;7.00;;
16669;SDS011;8448;52.034;5.158;2022-10-04T17:39:04;8.25;;;6.18;;
16669;SDS011;8448;52.034;5.158;2022-10-04T17:41:50;12.65;;;8.38;;
16669;SDS011;8448;52.034;5.158;2022-10-04T17:47:08;11.88;;;7.80;;
16669;SDS011;8448;52.034;5.158;2022-10-04T17:49:41;13.48;;;8.02;;
16669;SDS011;8448;52.034;5.158;2022-10-04T17:52:39;14.88;;;8.45;;
16669;SDS011;8448;52.034;5.158;2022-10-04T17:55:27;13.18;;;7.55;;
16669;SDS011;8448;52.034;5.158;2022-10-04T17:58:01;13.60;;;8.20;;
16669;SDS011;8448;52.034;5.158;2022-10-04T18:00:45;12.02;;;7.90;;
16669;SDS011;8448;52.034;5.158;2022-10-04T18:03:16;12.43;;;8.10;;
16669;SDS011;8448;52.034;5.158;2022-10-04T18:05:46;10.93;;;7.18;;